Time;durP1;ratioP1;P1;durP2;ratioP2;P2;SDS_P1;SDS_P2;PMS_P1;PMS_P2;Temp;Humidity;BMP_temperature;BMP_pressure;BME280_temperature;BME280_humidity;BME280_pressure;Samples;Min_cycle;Max_cycle;Signal;HPM_P1;HPM_P2
2022/10/31 00:02:06;;;;;;;6.03;1.23;;;;;;;-140.72;100.00;52881.94;5071013;28;20482;-67
2022/10/31 00:04:31;;;;;;;2.60;1.17;;;;;;;-140.72;100.00;52855.56;5088043;28;20028;-67
2022/10/31 00:06:56;;;;;;;2.70;1.50;;;;;;;-140.72;100.00;52853.53;5085314;28;20035;-67
2022/10/31 00:09:22;;;;;;;1.48;1.02;;;;;;;-140.72;100.00;52894.13;5065325;28;20038;-67
2022/10/31 00:11:47;;;;;;;2.25;1.38;;;;;;;-140.72;100.00;52857.59;5087920;28;20073;-67
2022/10/31 00:14:12;;;;;;;2.17;1.33;;;;;;;-140.72;100.00;52894.13;5068303;28;20622;-68
2022/10/31 00:16:38;;;;;;;2.25;1.35;;;;;;;-140.72;100.00;52857.59;5089513;28;20039;-67
2022/10/31 00:19:06;;;;;;;3.45;1.58;;;;;;;-140.72;100.00;52857.59;5089842;28;20026;-67
2022/10/31 00:21:32;;;;;;;4.13;1.42;;;;;;;-140.72;100.00;52888.03;5088715;28;20024;-66
2022/10/31 00:23:59;;;;;;;2.35;1.40;;;;;;;-140.72;100.00;52890.06;5074237;28;20364;-68
2022/10/31 00:26:26;;;;;;;2.55;1.08;;;;;;;-140.72;100.00;52871.78;5070347;28;20267;-67
2022/10/31 00:28:51;;;;;;;3.13;1.10;;;;;;;-140.72;100.00;52865.69;5067822;28;20387;-66
2022/10/31 00:31:17;;;;;;;5.00;1.38;;;;;;;-140.72;100.00;52886.00;5085475;28;20103;-66
2022/10/31 00:33:42;;;;;;;1.50;0.93;;;;;;;-140.72;100.00;52886.00;5091136;28;20107;-67
2022/10/31 00:36:12;;;;;;;3.45;1.58;;;;;;;-140.72;100.00;52879.91;5086153;28;20031;-67
2022/10/31 00:38:38;;;;;;;4.38;1.55;;;;;;;-140.72;100.00;52918.47;5090901;28;20059;-66
2022/10/31 00:41:03;;;;;;;2.20;1.35;;;;;;;-140.72;100.00;52908.31;5083798;28;20052;-67
2022/10/31 00:43:29;;;;;;;2.40;1.58;;;;;;;-140.72;100.00;52894.13;5089101;28;20455;-67
2022/10/31 00:45:54;;;;;;;3.33;1.85;;;;;;;-140.72;100.00;52930.66;5091054;28;20044;-67
2022/10/31 00:48:19;;;;;;;2.42;1.20;;;;;;;-140.72;100.00;52904.25;5084150;28;20170;-67
2022/10/31 00:50:45;;;;;;;2.63;1.90;;;;;;;-140.72;100.00;52894.13;5083522;28;20463;-66
2022/10/31 00:53:10;;;;;;;2.15;1.30;;;;;;;-140.72;100.00;52890.06;5084979;28;20024;-67
2022/10/31 00:55:35;;;;;;;2.85;1.55;;;;;;;-140.72;100.00;52886.00;5070190;28;20032;-67
2022/10/31 00:58:01;;;;;;;2.60;1.73;;;;;;;-140.72;100.00;52863.66;5088953;28;20075;-66
2022/10/31 01:00:26;;;;;;;3.42;2.05;;;;;;;-140.72;100.00;52886.00;5084757;28;20027;-67
2022/10/31 01:02:52;;;;;;;3.72;2.03;;;;;;;-140.72;100.00;52831.19;5064491;28;20020;-67
2022/10/31 01:05:17;;;;;;;4.55;1.27;;;;;;;-140.72;100.00;52875.84;5064752;28;20024;-67
2022/10/31 01:07:42;;;;;;;2.58;1.52;;;;;;;-140.72;100.00;52873.81;5087627;28;20446;-67
2022/10/31 01:10:09;;;;;;;2.45;1.38;;;;;;;-140.72;100.00;52853.53;5074637;28;20032;-67
2022/10/31 01:12:46;;;;;;;2.78;1.23;;;;;;;-140.72;100.00;52873.81;5083961;28;20051;-68
2022/10/31 01:15:14;;;;;;;4.00;1.40;;;;;;;-140.72;100.00;52900.19;5068706;28;20039;-67
2022/10/31 01:17:39;;;;;;;3.03;2.08;;;;;;;-140.72;100.00;52881.94;5073441;28;20032;-67
2022/10/31 01:20:13;;;;;;;3.47;1.52;;;;;;;-140.72;100.00;52873.81;5070251;28;20058;-67
2022/10/31 01:22:38;;;;;;;2.45;1.40;;;;;;;-140.72;100.00;52906.28;5069752;28;20491;-67
2022/10/31 01:25:04;;;;;;;2.20;1.42;;;;;;;-140.72;100.00;52906.28;5086802;28;20081;-68
2022/10/31 01:27:31;;;;;;;3.72;1.48;;;;;;;-140.72;100.00;52910.34;5070905;28;20024;-68
2022/10/31 01:29:56;;;;;;;2.10;1.45;;;;;;;-140.72;100.00;52912.38;5084520;28;20130;-67
2022/10/31 01:32:21;;;;;;;3.10;1.67;;;;;;;-140.72;100.00;52898.16;5081692;28;20056;-67
2022/10/31 01:34:47;;;;;;;2.72;1.48;;;;;;;-140.72;100.00;52902.22;5066338;28;20025;-67
2022/10/31 01:37:12;;;;;;;3.13;1.90;;;;;;;-140.72;100.00;52894.13;5083937;28;20112;-67
2022/10/31 01:39:37;;;;;;;2.05;1.55;;;;;;;-140.72;100.00;52894.13;5084583;28;20033;-68
2022/10/31 01:42:03;;;;;;;3.58;1.55;;;;;;;-140.72;100.00;52908.31;5066921;28;20062;-67
2022/10/31 01:44:28;;;;;;;3.08;1.60;;;;;;;-140.72;100.00;52894.13;5084836;28;20391;-68
2022/10/31 01:46:58;;;;;;;2.95;1.40;;;;;;;-140.72;100.00;52890.06;5082511;28;20040;-67
2022/10/31 01:49:45;;;;;;;2.95;1.95;;;;;;;-140.72;100.00;52879.91;5066304;28;20023;-66
2022/10/31 01:52:13;;;;;;;2.28;1.48;;;;;;;-140.72;100.00;52922.53;5081939;28;20031;-67
2022/10/31 01:54:50;;;;;;;2.30;1.42;;;;;;;-140.72;100.00;52973.25;5067083;28;20028;-67
2022/10/31 01:57:18;;;;;;;4.10;1.95;;;;;;;-140.72;100.00;52920.50;5087478;28;20495;-67
2022/10/31 01:59:54;;;;;;;2.80;1.45;;;;;;;-140.72;100.00;52918.47;5081918;28;20048;-67
2022/10/31 02:02:20;;;;;;;2.60;1.63;;;;;;;-140.72;100.00;52930.66;5081958;28;20067;-67
2022/10/31 02:04:47;;;;;;;2.75;1.63;;;;;;;-140.72;100.00;52938.75;5068835;28;20020;-67
2022/10/31 02:07:27;;;;;;;4.03;1.42;;;;;;;-140.72;100.00;52875.84;5085887;28;20074;-68
2022/10/31 02:09:53;;;;;;;3.38;2.22;;;;;;;-140.72;100.00;52920.50;5084298;28;20039;-68
2022/10/31 02:12:20;;;;;;;3.30;1.88;;;;;;;-140.72;100.00;52938.75;5087198;28;20360;-67
2022/10/31 02:14:46;;;;;;;3.20;2.20;;;;;;;-140.72;100.00;52922.53;5084123;28;20027;-67
2022/10/31 02:17:11;;;;;;;2.70;1.90;;;;;;;-140.72;100.00;52910.34;5087497;28;20649;-67
2022/10/31 02:19:56;;;;;;;3.33;2.22;;;;;;;-140.72;100.00;52886.00;5090440;28;20475;-68
2022/10/31 02:22:52;;;;;;;5.15;2.88;;;;;;;-140.72;100.00;52914.41;5086613;28;20058;-67
2022/10/31 02:25:52;;;;;;;8.18;1.77;;;;;;;-140.72;100.00;52934.69;5081275;28;20418;-68
2022/10/31 02:28:54;;;;;;;3.38;2.25;;;;;;;-140.72;100.00;52922.53;5088160;28;20024;-67
2022/10/31 02:31:35;;;;;;;4.50;2.50;;;;;;;-140.72;100.00;52934.69;5083456;28;20487;-67
2022/10/31 02:34:38;;;;;;;3.97;1.80;;;;;;;-140.72;100.00;52926.59;5081200;28;20031;-67
2022/10/31 02:37:14;;;;;;;3.47;1.75;;;;;;;-140.72;100.00;52938.75;5051914;28;20480;-67
2022/10/31 02:40:04;;;;;;;4.75;2.63;;;;;;;-140.72;100.00;52914.41;5079759;28;20036;-68
2022/10/31 02:42:36;;;;;;;4.20;2.63;;;;;;;-140.72;100.00;52946.88;5084989;28;20029;-67
2022/10/31 02:45:17;;;;;;;3.17;2.42;;;;;;;-140.72;100.00;52928.63;5088339;28;20444;-68
2022/10/31 02:47:44;;;;;;;3.50;2.30;;;;;;;-140.72;100.00;52922.53;5064417;28;20486;-66
2022/10/31 02:50:09;;;;;;;3.13;2.22;;;;;;;-140.72;100.00;52910.34;5070219;28;20158;-67
2022/10/31 02:52:35;;;;;;;5.28;2.88;;;;;;;-140.72;100.00;52926.59;5073208;28;20063;-66
2022/10/31 02:55:22;;;;;;;4.38;2.50;;;;;;;-140.72;100.00;52922.53;5072387;28;20055;-66
2022/10/31 02:57:49;;;;;;;4.20;2.78;;;;;;;-140.72;100.00;52959.06;5088447;28;20071;-66
2022/10/31 03:00:14;;;;;;;3.67;2.20;;;;;;;-140.72;100.00;52948.91;5074476;28;20058;-67
2022/10/31 03:03:00;;;;;;;4.82;2.28;;;;;;;-140.72;100.00;52922.53;5083217;28;20062;-66
2022/10/31 03:05:46;;;;;;;3.45;2.30;;;;;;;-140.72;100.00;52924.56;5063480;28;20123;-67
2022/10/31 03:08:27;;;;;;;8.05;3.47;;;;;;;-140.72;100.00;52928.63;5070340;28;20020;-67
2022/10/31 03:10:56;;;;;;;5.40;3.08;;;;;;;-140.72;100.00;52938.75;5078947;28;20108;-66
2022/10/31 03:13:27;;;;;;;6.57;3.60;;;;;;;-140.72;100.00;52938.75;5064240;28;20036;-67
2022/10/31 03:16:02;;;;;;;4.95;3.58;;;;;;;-140.72;100.00;52918.47;5065460;28;20020;-67
2022/10/31 03:18:37;;;;;;;4.53;2.90;;;;;;;-140.72;100.00;52959.06;5086834;28;20093;-67
2022/10/31 03:21:22;;;;;;;4.25;3.38;;;;;;;-140.72;100.00;52930.66;5088281;28;20446;-67
2022/10/31 03:23:50;;;;;;;6.32;3.25;;;;;;;-140.72;100.00;52942.81;5068214;28;20119;-67
2022/10/31 03:26:16;;;;;;;4.95;3.40;;;;;;;-140.72;100.00;52912.38;5089814;28;20471;-67
2022/10/31 03:28:48;;;;;;;4.78;3.63;;;;;;;-140.72;100.00;52967.16;5066628;28;20036;-66
2022/10/31 03:31:18;;;;;;;8.32;4.13;;;;;;;-140.72;100.00;52975.28;5088094;28;20365;-66
2022/10/31 03:33:46;;;;;;;6.82;4.38;;;;;;;-140.72;100.00;52940.78;5093967;22;20098;-73
2022/10/31 03:36:15;;;;;;;6.03;4.53;;;;;;;-140.72;100.00;52910.34;5042740;28;20402;-73
2022/10/31 03:38:44;;;;;;;9.18;5.72;;;;;;;-140.72;100.00;52904.25;5054861;28;20400;-73
2022/10/31 03:41:19;;;;;;;7.05;5.95;;;;;;;-140.72;100.00;52924.56;5062997;28;20445;-75
2022/10/31 03:43:53;;;;;;;7.22;5.50;;;;;;;-140.72;100.00;52967.16;5066984;28;20082;-73
2022/10/31 03:46:19;;;;;;;9.65;7.15;;;;;;;-140.72;100.00;52948.91;5057487;28;20060;-73
2022/10/31 03:48:45;;;;;;;8.95;6.28;;;;;;;-140.72;100.00;52912.38;5055474;28;20055;-74
2022/10/31 03:51:22;;;;;;;7.20;4.60;;;;;;;-140.72;100.00;52914.41;5058197;28;20064;-73
2022/10/31 03:53:56;;;;;;;9.23;5.45;;;;;;;-140.72;100.00;52930.66;5051714;28;20036;-73
2022/10/31 03:56:36;;;;;;;7.72;4.95;;;;;;;-140.72;100.00;52946.88;5056342;28;21370;-74
2022/10/31 03:59:22;;;;;;;9.68;7.00;;;;;;;-140.72;100.00;52890.06;5062786;28;20036;-73
2022/10/31 04:01:53;;;;;;;11.15;7.22;;;;;;;-140.72;100.00;52932.66;5056976;28;20036;-73
2022/10/31 04:04:19;;;;;;;8.85;6.35;;;;;;;-140.72;100.00;52940.78;5061626;28;20123;-72
2022/10/31 04:06:46;;;;;;;9.38;7.22;;;;;;;-140.72;100.00;52932.66;5053505;28;20472;-72
2022/10/31 04:09:14;;;;;;;11.38;5.82;;;;;;;-140.72;100.00;52904.25;5051829;28;20115;-73
2022/10/31 04:11:49;;;;;;;10.65;7.72;;;;;;;-140.72;100.00;52861.66;5055814;28;20031;-73
2022/10/31 04:14:14;;;;;;;10.30;8.13;;;;;;;-140.72;100.00;52969.19;5056703;28;20486;-72
2022/10/31 04:16:43;;;;;;;11.98;7.70;;;;;;;-140.72;100.00;52946.88;5048002;28;20039;-73
2022/10/31 04:19:10;;;;;;;7.78;6.03;;;;;;;-140.72;100.00;52916.44;5059370;28;20376;-73
2022/10/31 04:21:35;;;;;;;8.65;6.18;;;;;;;-140.72;100.00;52950.94;5061275;28;20094;-74
2022/10/31 04:24:00;;;;;;;11.85;8.02;;;;;;;-140.72;100.00;52916.44;5056633;28;20063;-73
2022/10/31 04:26:26;;;;;;;10.98;8.02;;;;;;;-140.72;100.00;52881.94;5055362;28;20028;-74
2022/10/31 04:28:51;;;;;;;7.25;5.68;;;;;;;-140.72;100.00;52922.53;5059285;28;20033;-75
2022/10/31 04:31:17;;;;;;;8.52;6.63;;;;;;;-140.72;100.00;52902.22;5051540;28;20081;-72
2022/10/31 04:33:42;;;;;;;13.85;7.78;;;;;;;-140.72;100.00;52967.16;5052305;28;20382;-72
2022/10/31 04:36:08;;;;;;;10.40;6.07;;;;;;;-140.72;100.00;52944.84;5050650;28;20086;-72
2022/10/31 04:38:34;;;;;;;11.23;6.80;;;;;;;-140.72;100.00;52942.81;5050086;28;20123;-72
2022/10/31 04:40:59;;;;;;;10.05;6.82;;;;;;;-140.72;100.00;52977.31;5055431;28;20348;-74
2022/10/31 04:43:25;;;;;;;8.60;6.60;;;;;;;-140.72;100.00;52924.56;5058012;28;20039;-72
2022/10/31 04:45:50;;;;;;;8.63;6.03;;;;;;;-140.72;100.00;52916.44;5049434;28;20479;-72
2022/10/31 04:48:15;;;;;;;7.82;6.13;;;;;;;-140.72;100.00;52930.66;5042544;28;20038;-74
2022/10/31 04:50:41;;;;;;;7.63;5.82;;;;;;;-140.72;100.00;52916.44;5040705;28;20029;-72
2022/10/31 04:53:07;;;;;;;7.78;6.45;;;;;;;-140.72;100.00;52938.75;5062619;28;20111;-72
2022/10/31 04:55:32;;;;;;;11.85;6.70;;;;;;;-140.72;100.00;52888.03;5056783;28;20175;-72
2022/10/31 04:57:57;;;;;;;10.25;6.88;;;;;;;-140.72;100.00;52924.56;5056092;28;20396;-74
2022/10/31 05:00:23;;;;;;;9.02;7.70;;;;;;;-140.72;100.00;52946.88;5063442;28;20029;-74
2022/10/31 05:02:52;;;;;;;10.63;7.72;;;;;;;-140.72;100.00;52914.41;5053121;28;20086;-73
2022/10/31 05:05:19;;;;;;;13.57;7.38;;;;;;;-140.72;100.00;52963.13;5055021;28;20078;-72
2022/10/31 05:07:46;;;;;;;7.97;6.70;;;;;;;-140.72;100.00;52948.91;5056730;28;20411;-72
2022/10/31 05:10:14;;;;;;;15.63;7.68;;;;;;;-140.72;100.00;52944.84;5046583;28;20511;-72
2022/10/31 05:12:48;;;;;;;12.05;8.05;;;;;;;-140.72;100.00;52928.63;5047799;28;20028;-73
2022/10/31 05:15:14;;;;;;;9.25;7.90;;;;;;;-140.72;100.00;52928.63;5058391;28;20331;-72
2022/10/31 05:17:39;;;;;;;9.35;6.97;;;;;;;-140.72;100.00;52938.75;5063708;28;20064;-73
2022/10/31 05:20:05;;;;;;;9.40;6.70;;;;;;;-140.72;100.00;52946.88;5064476;28;20029;-73
2022/10/31 05:22:30;;;;;;;9.43;7.63;;;;;;;-140.72;100.00;52910.34;5061328;28;20025;-72
2022/10/31 05:24:56;;;;;;;10.45;6.82;;;;;;;-140.72;100.00;52920.50;5056849;28;20032;-72
2022/10/31 05:27:21;;;;;;;9.40;7.47;;;;;;;-140.72;100.00;52971.22;5059594;28;20036;-73
2022/10/31 05:29:47;;;;;;;8.10;6.65;;;;;;;-140.72;100.00;52955.00;5051796;28;20116;-72
2022/10/31 05:32:12;;;;;;;9.77;7.10;;;;;;;-140.72;100.00;52930.66;5049067;28;20480;-73
2022/10/31 05:34:37;;;;;;;9.07;6.30;;;;;;;-140.72;100.00;52957.03;5049111;28;20048;-72
2022/10/31 05:37:03;;;;;;;8.43;6.45;;;;;;;-140.72;100.00;52930.66;5049051;28;20103;-74
2022/10/31 05:39:28;;;;;;;8.18;5.78;;;;;;;-140.72;100.00;52922.53;5052246;28;20043;-72
2022/10/31 05:41:53;;;;;;;7.88;5.90;;;;;;;-140.72;100.00;52934.69;5043889;28;20111;-75
2022/10/31 05:44:20;;;;;;;8.98;6.50;;;;;;;-140.72;100.00;52975.28;5038749;28;20026;-73
2022/10/31 05:46:46;;;;;;;9.00;6.75;;;;;;;-140.72;100.00;52959.06;5039348;28;20032;-72
2022/10/31 05:49:12;;;;;;;7.70;6.25;;;;;;;-140.72;100.00;52936.72;5041369;28;20029;-72
2022/10/31 05:51:37;;;;;;;9.55;5.95;;;;;;;-140.72;100.00;52969.19;5040830;28;20486;-73
2022/10/31 05:54:03;;;;;;;9.05;5.72;;;;;;;-140.72;100.00;52950.94;5040156;28;20532;-73
2022/10/31 05:56:31;;;;;;;7.85;5.55;;;;;;;-140.72;100.00;52975.28;5037950;28;20029;-73
2022/10/31 05:58:59;;;;;;;10.43;6.32;;;;;;;-140.72;100.00;52983.41;5033209;28;20029;-75
2022/10/31 06:01:24;;;;;;;8.15;6.20;;;;;;;-140.72;100.00;52983.41;5038902;28;20025;-73
2022/10/31 06:03:50;;;;;;;8.07;5.93;;;;;;;-140.72;100.00;52959.06;5037007;28;20055;-71
2022/10/31 06:06:18;;;;;;;9.25;5.95;;;;;;;-140.72;100.00;52963.13;5037959;28;20045;-72
2022/10/31 06:08:43;;;;;;;8.45;5.95;;;;;;;-140.72;100.00;52922.53;5038004;28;20037;-72
2022/10/31 06:11:11;;;;;;;7.60;5.32;;;;;;;-140.72;100.00;52936.72;5044074;28;20070;-71
2022/10/31 06:13:37;;;;;;;10.45;5.95;;;;;;;-140.72;100.00;52936.72;5038755;28;20120;-73
2022/10/31 06:16:02;;;;;;;8.75;6.30;;;;;;;-140.72;100.00;52944.84;5046980;28;20128;-72
2022/10/31 06:18:28;;;;;;;10.07;5.75;;;;;;;-140.72;100.00;53003.69;5043352;28;20028;-75
2022/10/31 06:20:53;;;;;;;9.98;5.55;;;;;;;-140.72;100.00;52936.72;5040079;28;20196;-73
2022/10/31 06:23:18;;;;;;;11.38;6.65;;;;;;;-140.72;100.00;52985.44;5051446;28;20488;-72
2022/10/31 06:25:48;;;;;;;7.88;6.00;;;;;;;-140.72;100.00;52938.75;5048148;28;20113;-74
2022/10/31 06:28:14;;;;;;;6.50;5.13;;;;;;;-140.72;100.00;52955.00;5045905;28;20024;-73
2022/10/31 06:30:42;;;;;;;7.53;5.68;;;;;;;-140.72;100.00;52938.75;5045264;28;20029;-73
2022/10/31 06:33:08;;;;;;;8.90;6.13;;;;;;;-140.72;100.00;52934.69;5041171;28;20037;-72
2022/10/31 06:35:33;;;;;;;9.00;5.43;;;;;;;-140.72;100.00;52975.28;5044276;28;20491;-72
2022/10/31 06:37:59;;;;;;;7.32;6.63;;;;;;;-140.72;100.00;52967.16;5049739;28;20025;-74
2022/10/31 06:40:24;;;;;;;6.07;4.90;;;;;;;-140.72;100.00;52948.91;5043865;28;20400;-72
2022/10/31 06:43:00;;;;;;;9.75;5.68;;;;;;;-140.72;100.00;52955.00;5039320;28;20041;-74
2022/10/31 06:45:26;;;;;;;12.43;5.78;;;;;;;-140.72;100.00;52942.81;5044763;28;20385;-74
2022/10/31 06:47:53;;;;;;;7.53;5.72;;;;;;;-140.72;100.00;52973.25;5041069;28;20280;-73
2022/10/31 06:50:19;;;;;;;7.68;5.57;;;;;;;-140.72;100.00;52938.75;5048546;28;20094;-73
2022/10/31 06:52:53;;;;;;;9.95;6.75;;;;;;;-140.72;100.00;52946.88;5045560;28;20025;-72
2022/10/31 06:55:20;;;;;;;7.90;5.30;;;;;;;-140.72;100.00;52979.34;5044868;28;20025;-72
2022/10/31 06:57:52;;;;;;;8.05;6.07;;;;;;;-140.72;100.00;52938.75;5041051;28;20031;-73
2022/10/31 07:00:19;;;;;;;6.80;5.72;;;;;;;-140.72;100.00;52942.81;5042285;28;20059;-73
2022/10/31 07:02:53;;;;;;;8.90;6.47;;;;;;;-140.72;100.00;52948.91;5041285;28;20029;-72
2022/10/31 07:05:18;;;;;;;9.88;7.00;;;;;;;-140.72;100.00;52940.78;5045362;28;20478;-74
2022/10/31 07:07:43;;;;;;;8.05;6.78;;;;;;;-140.72;100.00;52932.66;5046666;28;20032;-72
2022/10/31 07:10:09;;;;;;;8.13;6.55;;;;;;;-140.72;100.00;52928.63;5059433;28;20297;-71
2022/10/31 07:12:35;;;;;;;7.20;6.03;;;;;;;-140.72;100.00;52934.69;5059127;28;20090;-74
2022/10/31 07:15:01;;;;;;;7.97;5.95;;;;;;;-140.72;100.00;52902.22;5047804;28;20033;-72
2022/10/31 07:17:26;;;;;;;6.88;4.80;;;;;;;-140.72;100.00;52971.22;5047396;28;20028;-74
2022/10/31 07:19:51;;;;;;;15.70;6.97;;;;;;;-140.72;100.00;52955.00;5040973;28;20061;-73
2022/10/31 07:22:17;;;;;;;7.45;5.32;;;;;;;-140.72;100.00;52946.88;5041000;28;20056;-73
2022/10/31 07:24:42;;;;;;;13.18;5.75;;;;;;;-140.72;100.00;52946.88;5042345;28;20105;-73
2022/10/31 07:27:07;;;;;;;7.07;5.82;;;;;;;-140.72;100.00;52946.88;5043873;28;20064;-72
2022/10/31 07:29:33;;;;;;;9.27;6.47;;;;;;;-140.72;100.00;52946.88;5034566;28;20037;-73
2022/10/31 07:31:58;;;;;;;7.68;6.15;;;;;;;-140.72;100.00;52908.31;5050284;28;20360;-72
2022/10/31 07:34:23;;;;;;;7.90;6.07;;;;;;;-140.72;100.00;52890.06;5044061;28;20057;-73
2022/10/31 07:36:50;;;;;;;11.18;7.03;;;;;;;-140.72;100.00;52914.41;5048675;28;20079;-73
2022/10/31 07:39:16;;;;;;;7.55;6.70;;;;;;;-140.72;100.00;52926.59;5056859;28;20052;-74
2022/10/31 07:41:42;;;;;;;8.02;6.18;;;;;;;-140.72;100.00;52896.16;5054641;28;20394;-75
2022/10/31 07:44:08;;;;;;;11.13;6.70;;;;;;;-140.72;100.00;52912.38;5047531;28;20116;-72
2022/10/31 07:46:33;;;;;;;10.40;6.20;;;;;;;-140.72;100.00;52914.41;5046411;28;20148;-73
2022/10/31 07:48:59;;;;;;;8.30;6.80;;;;;;;-140.72;100.00;52942.81;5050024;28;20049;-74
2022/10/31 07:51:24;;;;;;;9.93;6.88;;;;;;;-140.72;100.00;52888.03;5047953;28;20389;-72
2022/10/31 07:53:49;;;;;;;9.18;6.68;;;;;;;-140.72;100.00;52918.47;5049300;28;20028;-71
2022/10/31 07:56:15;;;;;;;10.10;7.63;;;;;;;-140.72;100.00;52900.19;5052085;28;20025;-71
2022/10/31 07:58:40;;;;;;;8.80;6.53;;;;;;;-140.72;100.00;52936.72;5045576;28;20541;-73
2022/10/31 08:01:05;;;;;;;9.65;6.20;;;;;;;-140.72;100.00;52959.06;5051975;28;20112;-74
2022/10/31 08:03:31;;;;;;;9.88;7.35;;;;;;;-140.72;100.00;52930.66;5047453;28;20086;-72
2022/10/31 08:05:56;;;;;;;10.88;6.22;;;;;;;-140.72;100.00;52902.22;5049548;28;20214;-72
2022/10/31 08:08:21;;;;;;;9.52;7.40;;;;;;;-140.72;100.00;52902.22;5032347;28;20549;-72
2022/10/31 08:10:47;;;;;;;8.82;7.05;;;;;;;-140.72;100.00;52902.22;5051051;28;20052;-75
2022/10/31 08:13:14;;;;;;;9.40;7.88;;;;;;;-140.72;100.00;52922.53;5047226;28;20025;-71
2022/10/31 08:15:41;;;;;;;11.05;7.43;;;;;;;-140.72;100.00;52938.75;5048812;28;20024;-73
2022/10/31 08:18:11;;;;;;;9.52;7.47;;;;;;;-140.72;100.00;52886.00;5050160;28;20043;-73
2022/10/31 08:20:37;;;;;;;9.32;7.78;;;;;;;-140.72;100.00;52886.00;5042222;28;20040;-72
2022/10/31 08:23:04;;;;;;;9.45;7.43;;;;;;;-140.72;100.00;52922.53;5039406;28;20084;-72
2022/10/31 08:25:32;;;;;;;10.30;8.10;;;;;;;-140.72;100.00;52918.47;5049437;28;20064;-72
2022/10/31 08:27:57;;;;;;;12.10;8.52;;;;;;;-140.72;100.00;52910.34;5049709;28;20025;-72
2022/10/31 08:30:26;;;;;;;9.45;7.72;;;;;;;-140.72;100.00;52869.75;5045570;28;20442;-73
2022/10/31 08:33:19;;;;;;;14.65;9.30;;;;;;;-140.72;100.00;52875.84;5050052;28;20117;-73
2022/10/31 08:35:45;;;;;;;12.68;9.45;;;;;;;-140.72;100.00;52930.66;5031846;28;20041;-72
2022/10/31 08:38:12;;;;;;;13.05;9.15;;;;;;;-140.72;100.00;52906.28;5036902;28;20033;-72
2022/10/31 08:40:38;;;;;;;13.05;8.73;;;;;;;-140.72;100.00;52867.72;5048719;28;20335;-73
2022/10/31 08:43:06;;;;;;;13.02;9.70;;;;;;;-140.72;100.00;52926.59;5049546;28;20079;-72
2022/10/31 08:45:33;;;;;;;14.98;10.05;;;;;;;-140.72;100.00;52877.88;5049420;28;20033;-72
2022/10/31 08:48:01;;;;;;;14.80;11.15;;;;;;;-140.72;100.00;52908.31;5052738;28;20520;-71
2022/10/31 08:50:28;;;;;;;11.35;9.10;;;;;;;-140.72;100.00;52916.44;5046169;28;20029;-72
2022/10/31 08:52:53;;;;;;;11.88;10.13;;;;;;;-140.72;100.00;52877.88;5055669;28;20029;-73
2022/10/31 08:55:19;;;;;;;13.90;10.23;;;;;;;-140.72;100.00;52924.56;5054966;28;20031;-72
2022/10/31 08:57:44;;;;;;;15.45;11.25;;;;;;;-140.72;100.00;52853.53;5069522;28;20536;-72
2022/10/31 09:00:10;;;;;;;15.13;10.27;;;;;;;-140.72;100.00;52881.94;5070299;28;20474;-72
2022/10/31 09:02:38;;;;;;;14.48;10.25;;;;;;;-140.72;100.00;52829.19;5069262;28;20040;-72
2022/10/31 09:05:04;;;;;;;16.23;10.90;;;;;;;-140.72;100.00;52851.50;5058046;28;20024;-74
2022/10/31 09:07:29;;;;;;;14.40;11.68;;;;;;;-140.72;100.00;52843.38;5059662;28;20056;-72
2022/10/31 09:09:55;;;;;;;17.10;11.82;;;;;;;-140.72;100.00;52841.34;5061447;28;20507;-73
2022/10/31 09:12:21;;;;;;;15.13;10.30;;;;;;;-140.72;100.00;52853.53;5052493;28;20029;-73
2022/10/31 09:14:47;;;;;;;13.75;9.27;;;;;;;-140.72;100.00;52871.78;5057415;28;20392;-73
2022/10/31 09:17:12;;;;;;;13.93;11.05;;;;;;;-140.72;100.00;52841.34;5069401;28;20031;-74
2022/10/31 09:19:37;;;;;;;14.02;9.52;;;;;;;-140.72;100.00;52817.00;5070132;28;20070;-72
2022/10/31 09:22:03;;;;;;;12.63;9.73;;;;;;;-140.72;100.00;52825.13;5067779;28;20024;-74
2022/10/31 09:24:28;;;;;;;18.83;9.82;;;;;;;-140.72;100.00;52817.00;5058158;28;20033;-73
2022/10/31 09:26:53;;;;;;;15.15;9.73;;;;;;;-140.72;100.00;52843.38;5042910;28;20026;-75
2022/10/31 09:29:19;;;;;;;17.15;9.05;;;;;;;-140.72;100.00;52857.59;5061094;28;20029;-73
2022/10/31 09:31:44;;;;;;;15.90;8.70;;;;;;;-140.72;100.00;52845.41;5061461;28;20025;-74
2022/10/31 09:34:09;;;;;;;12.35;9.25;;;;;;;-140.72;100.00;52802.78;5039423;28;20152;-73
2022/10/31 09:36:36;;;;;;;11.25;7.78;;;;;;;-140.72;100.00;52829.19;5062932;28;20045;-75
2022/10/31 09:39:02;;;;;;;12.07;8.15;;;;;;;-140.72;100.00;52804.81;5069933;28;20024;-75
2022/10/31 09:41:40;;;;;;;11.18;8.48;;;;;;;-140.72;100.00;52843.38;5069910;28;20040;-73
2022/10/31 09:44:32;;;;;;;10.48;7.50;;;;;;;-140.72;100.00;52778.44;5069194;28;20062;-74
2022/10/31 09:47:10;;;;;;;8.95;7.03;;;;;;;-140.72;100.00;52788.59;5031864;28;20037;-74
2022/10/31 09:49:41;;;;;;;14.00;7.90;;;;;;;-140.72;100.00;52766.25;5048787;28;20426;-76
2022/10/31 09:52:18;;;;;;;9.30;7.38;;;;;;;-140.72;100.00;52754.09;5062961;28;20020;-75
2022/10/31 09:54:47;;;;;;;11.10;7.25;;;;;;;-140.72;100.00;52770.31;5070159;28;20024;-73
2022/10/31 09:57:15;;;;;;;9.90;7.93;;;;;;;-140.72;100.00;52817.00;5054160;28;20032;-73
2022/10/31 09:59:43;;;;;;;;;;;;;;;-140.72;100.00;52776.41;5061442;28;20041;-73
2022/10/31 10:02:24;;;;;;;11.55;8.02;;;;;;;-140.72;100.00;52741.91;5064912;28;19937;-75
2022/10/31 10:04:59;;;;;;;9.98;7.30;;;;;;;-140.72;100.00;52780.47;5058408;28;20079;-75
2022/10/31 10:07:57;;;;;;;10.38;6.93;;;;;;;-140.72;100.00;52774.38;5045209;28;20032;-73
2022/10/31 10:10:30;;;;;;;10.95;6.72;;;;;;;-140.72;100.00;52743.94;5032620;28;20024;-74
2022/10/31 10:13:39;;;;;;;9.23;6.93;;;;;;;-140.72;100.00;52804.81;5054540;28;20021;-73
2022/10/31 10:16:33;;;;;;;8.88;6.65;;;;;;;-140.72;100.00;52788.59;4970046;28;20077;-76
2022/10/31 10:19:24;;;;;;;10.77;7.75;;;;;;;-140.72;100.00;52776.41;5059698;28;20108;-73
2022/10/31 10:21:59;;;;;;;7.72;6.18;;;;;;;-140.72;100.00;52735.81;5020360;28;20114;-74
2022/10/31 10:24:24;;;;;;;9.38;7.97;;;;;;;-140.72;100.00;52756.13;5031664;28;20442;-73
2022/10/31 10:27:14;;;;;;;12.32;8.25;;;;;;;-140.72;100.00;52719.59;5012314;28;20120;-74
2022/10/31 10:29:42;;;;;;;;;;;;;;;-140.72;100.00;52752.06;5031271;28;20116;-73
2022/10/31 10:32:22;;;;;;;8.52;6.88;;;;;;;-140.72;100.00;52709.44;5063083;28;19952;-73
2022/10/31 10:34:53;;;;;;;11.10;7.00;;;;;;;-140.72;100.00;52748.00;5065758;28;20045;-73
2022/10/31 10:37:40;;;;;;;8.93;6.70;;;;;;;-140.72;100.00;52703.34;5054347;28;20029;-74
2022/10/31 10:40:26;;;;;;;9.55;6.00;;;;;;;-140.72;100.00;52748.00;5057658;28;20025;-73
2022/10/31 10:43:27;;;;;;;8.50;5.75;;;;;;;-140.72;100.00;52695.25;5062545;28;20479;-76
2022/10/31 10:49:24;;;;;;;14.20;6.75;;;;;;;-140.72;100.00;52713.50;5049728;28;20047;-73
2022/10/31 10:51:58;;;;;;;11.90;6.50;;;;;;;-140.72;100.00;52679.00;5049321;28;20044;-74
2022/10/31 10:54:45;;;;;;;10.38;6.60;;;;;;;-140.72;100.00;52687.13;5048766;28;20036;-73
2022/10/31 10:57:40;;;;;;;8.02;6.47;;;;;;;-140.72;100.00;52689.16;5049195;28;20033;-75
2022/10/31 11:00:41;;;;;;;9.77;6.55;;;;;;;-140.72;100.00;52672.91;5049230;28;20170;-74
2022/10/31 11:03:08;;;;;;;9.00;6.13;;;;;;;-140.72;100.00;52713.50;5030267;28;20041;-73
2022/10/31 11:06:01;;;;;;;9.10;6.20;;;;;;;-140.72;100.00;52713.50;5053285;28;20465;-74
2022/10/31 11:08:31;;;;;;;8.93;6.45;;;;;;;-140.72;100.00;52691.19;5052908;28;20041;-74
2022/10/31 11:11:03;;;;;;;10.23;6.70;;;;;;;-140.72;100.00;52699.31;5052762;28;20447;-73
2022/10/31 11:13:30;;;;;;;8.27;6.72;;;;;;;-140.72;100.00;52695.25;5035619;28;20033;-73
2022/10/31 11:16:03;;;;;;;8.27;5.95;;;;;;;-140.72;100.00;52685.09;5051807;28;20021;-74
2022/10/31 11:18:37;;;;;;;9.27;6.70;;;;;;;-140.72;100.00;52691.19;5053474;28;20033;-73
2022/10/31 11:21:05;;;;;;;10.88;6.30;;;;;;;-140.72;100.00;52727.72;5052696;28;20542;-73
2022/10/31 11:23:31;;;;;;;16.05;6.57;;;;;;;-140.72;100.00;52731.75;5052330;28;20389;-74